sensor_id;sensor_type;location;lat;lon;timestamp;pressure;altitude;pressure_sealevel;temperature;humidity
6680;BME280;3376;42.664;23.346;2023-06-14T00:02:15;94264.88;;;18.41;100.00
6680;BME280;3376;42.664;23.346;2023-06-14T00:04:41;94268.91;;;18.43;100.00
6680;BME280;3376;42.664;23.346;2023-06-14T00:07:08;94268.09;;;18.43;100.00
6680;BME280;3376;42.664;23.346;2023-06-14T00:09:35;94242.97;;;18.24;100.00
6680;BME280;3376;42.664;23.346;2023-06-14T00:12:02;94249.72;;;18.20;100.00
6680;BME280;3376;42.664;23.346;2023-06-14T00:14:30;94248.81;;;18.14;100.00
6680;BME280;3376;42.664;23.346;2023-06-14T00:16:57;94258.72;;;18.24;100.00
6680;BME280;3376;42.664;23.346;2023-06-14T00:19:24;94242.78;;;18.25;100.00
6680;BME280;3376;42.664;23.346;2023-06-14T00:21:51;94246.53;;;18.41;100.00
6680;BME280;3376;42.664;23.346;2023-06-14T00:24:18;94247.56;;;18.40;100.00
6680;BME280;3376;42.664;23.346;2023-06-14T00:26:45;94243.34;;;18.39;100.00
6680;BME280;3376;42.664;23.346;2023-06-14T00:29:12;94243.91;;;18.41;100.00
6680;BME280;3376;42.664;23.346;2023-06-14T00:31:40;94248.38;;;18.40;100.00
6680;BME280;3376;42.664;23.346;2023-06-14T00:34:07;94241.28;;;18.41;100.00
6680;BME280;3376;42.664;23.346;2023-06-14T00:36:34;94250.88;;;18.47;100.00
6680;BME280;3376;42.664;23.346;2023-06-14T00:39:01;94225.41;;;18.36;100.00
6680;BME280;3376;42.664;23.346;2023-06-14T00:41:29;94248.25;;;18.47;100.00
6680;BME280;3376;42.664;23.346;2023-06-14T00:43:55;94222.34;;;18.27;100.00
6680;BME280;3376;42.664;23.346;2023-06-14T00:46:23;94236.59;;;18.43;100.00
6680;BME280;3376;42.664;23.346;2023-06-14T00:48:51;94222.69;;;18.31;100.00
6680;BME280;3376;42.664;23.346;2023-06-14T00:51:18;94235.91;;;18.36;100.00
6680;BME280;3376;42.664;23.346;2023-06-14T00:53:45;94199.78;;;18.15;100.00
6680;BME280;3376;42.664;23.346;2023-06-14T00:56:13;94205.81;;;18.27;100.00
6680;BME280;3376;42.664;23.346;2023-06-14T00:58:40;94228.38;;;18.28;100.00
6680;BME280;3376;42.664;23.346;2023-06-14T01:01:08;94230.66;;;18.36;100.00
6680;BME280;3376;42.664;23.346;2023-06-14T01:03:34;94231.59;;;18.41;100.00
6680;BME280;3376;42.664;23.346;2023-06-14T01:06:13;94222.47;;;18.44;100.00
6680;BME280;3376;42.664;23.346;2023-06-14T01:09:01;94228.75;;;18.43;100.00
6680;BME280;3376;42.664;23.346;2023-06-14T01:11:33;94223.25;;;18.33;100.00
6680;BME280;3376;42.664;23.346;2023-06-14T01:14:03;94233.63;;;18.39;100.00
6680;BME280;3376;42.664;23.346;2023-06-14T01:16:32;94204.69;;;18.23;100.00
6680;BME280;3376;42.664;23.346;2023-06-14T01:19:01;94224.97;;;18.27;100.00
6680;BME280;3376;42.664;23.346;2023-06-14T01:21:29;94222.56;;;18.26;100.00
6680;BME280;3376;42.664;23.346;2023-06-14T01:24:00;94226.34;;;18.30;100.00
6680;BME280;3376;42.664;23.346;2023-06-14T01:26:28;94231.25;;;18.26;100.00
6680;BME280;3376;42.664;23.346;2023-06-14T01:28:55;94224.06;;;18.22;100.00
6680;BME280;3376;42.664;23.346;2023-06-14T01:31:24;94228.28;;;18.23;100.00
6680;BME280;3376;42.664;23.346;2023-06-14T01:33:52;94237.28;;;18.27;100.00
6680;BME280;3376;42.664;23.346;2023-06-14T01:36:20;94246.50;;;18.29;100.00
6680;BME280;3376;42.664;23.346;2023-06-14T01:38:48;94225.53;;;18.29;100.00
6680;BME280;3376;42.664;23.346;2023-06-14T01:41:18;94194.69;;;18.08;100.00
6680;BME280;3376;42.664;23.346;2023-06-14T01:43:47;94227.25;;;18.24;100.00
6680;BME280;3376;42.664;23.346;2023-06-14T01:46:15;94228.06;;;18.24;100.00
6680;BME280;3376;42.664;23.346;2023-06-14T01:48:42;94205.81;;;18.04;100.00
6680;BME280;3376;42.664;23.346;2023-06-14T01:51:09;94228.28;;;18.23;100.00
6680;BME280;3376;42.664;23.346;2023-06-14T01:53:36;94222.81;;;18.24;100.00
6680;BME280;3376;42.664;23.346;2023-06-14T01:56:03;94226.00;;;18.26;100.00
6680;BME280;3376;42.664;23.346;2023-06-14T01:58:32;94236.72;;;18.25;100.00
6680;BME280;3376;42.664;23.346;2023-06-14T02:00:59;94225.78;;;18.16;100.00
6680;BME280;3376;42.664;23.346;2023-06-14T02:03:26;94239.22;;;18.31;100.00
6680;BME280;3376;42.664;23.346;2023-06-14T02:05:53;94229.31;;;18.22;100.00
6680;BME280;3376;42.664;23.346;2023-06-14T02:08:21;94231.94;;;18.22;100.00
6680;BME280;3376;42.664;23.346;2023-06-14T02:10:47;94242.53;;;18.27;100.00
6680;BME280;3376;42.664;23.346;2023-06-14T02:13:14;94245.75;;;18.29;100.00
6680;BME280;3376;42.664;23.346;2023-06-14T02:15:42;94255.41;;;18.28;100.00
6680;BME280;3376;42.664;23.346;2023-06-14T02:18:10;94241.28;;;18.18;100.00
6680;BME280;3376;42.664;23.346;2023-06-14T02:20:37;94253.59;;;18.29;100.00
6680;BME280;3376;42.664;23.346;2023-06-14T02:23:04;94254.38;;;18.29;100.00
6680;BME280;3376;42.664;23.346;2023-06-14T02:25:33;94258.50;;;18.37;100.00
6680;BME280;3376;42.664;23.346;2023-06-14T02:27:59;94246.06;;;18.21;100.00
6680;BME280;3376;42.664;23.346;2023-06-14T02:30:26;94226.44;;;18.12;100.00
6680;BME280;3376;42.664;23.346;2023-06-14T02:32:54;94264.13;;;18.40;100.00
6680;BME280;3376;42.664;23.346;2023-06-14T02:35:22;94264.97;;;18.34;100.00
6680;BME280;3376;42.664;23.346;2023-06-14T02:37:51;94265.44;;;18.31;100.00
6680;BME280;3376;42.664;23.346;2023-06-14T02:40:18;94263.88;;;18.30;100.00
6680;BME280;3376;42.664;23.346;2023-06-14T02:42:45;94230.34;;;18.09;100.00
6680;BME280;3376;42.664;23.346;2023-06-14T02:45:12;94262.50;;;18.16;100.00
6680;BME280;3376;42.664;23.346;2023-06-14T02:47:38;94255.88;;;18.14;100.00
6680;BME280;3376;42.664;23.346;2023-06-14T02:50:08;94260.53;;;18.12;100.00
6680;BME280;3376;42.664;23.346;2023-06-14T02:52:35;94252.47;;;18.13;100.00
6680;BME280;3376;42.664;23.346;2023-06-14T02:55:02;94263.38;;;18.10;100.00
6680;BME280;3376;42.664;23.346;2023-06-14T02:57:29;94268.28;;;18.07;100.00
6680;BME280;3376;42.664;23.346;2023-06-14T02:59:55;94269.09;;;17.96;100.00
6680;BME280;3376;42.664;23.346;2023-06-14T03:02:22;94272.28;;;17.98;100.00
6680;BME280;3376;42.664;23.346;2023-06-14T03:04:49;94274.44;;;18.01;100.00
6680;BME280;3376;42.664;23.346;2023-06-14T03:07:17;94265.22;;;18.10;100.00
6680;BME280;3376;42.664;23.346;2023-06-14T03:09:48;94277.88;;;18.13;100.00
6680;BME280;3376;42.664;23.346;2023-06-14T03:12:15;94275.38;;;18.18;100.00
6680;BME280;3376;42.664;23.346;2023-06-14T03:14:42;94274.34;;;18.07;100.00
6680;BME280;3376;42.664;23.346;2023-06-14T03:17:11;94280.28;;;18.14;100.00
6680;BME280;3376;42.664;23.346;2023-06-14T03:19:37;94280.16;;;18.09;100.00
6680;BME280;3376;42.664;23.346;2023-06-14T03:22:06;94289.84;;;18.20;100.00
6680;BME280;3376;42.664;23.346;2023-06-14T03:24:35;94254.97;;;18.08;100.00
6680;BME280;3376;42.664;23.346;2023-06-14T03:27:02;94286.53;;;18.25;100.00
6680;BME280;3376;42.664;23.346;2023-06-14T03:29:28;94273.78;;;18.17;100.00
6680;BME280;3376;42.664;23.346;2023-06-14T03:31:58;94283.34;;;18.23;100.00
6680;BME280;3376;42.664;23.346;2023-06-14T03:34:25;94280.97;;;18.21;100.00
6680;BME280;3376;42.664;23.346;2023-06-14T03:36:52;94278.69;;;18.13;100.00
6680;BME280;3376;42.664;23.346;2023-06-14T03:39:20;94261.34;;;17.89;100.00
6680;BME280;3376;42.664;23.346;2023-06-14T03:41:48;94287.66;;;18.06;100.00
6680;BME280;3376;42.664;23.346;2023-06-14T03:44:16;94285.84;;;18.06;100.00
6680;BME280;3376;42.664;23.346;2023-06-14T03:46:44;94149.00;;;17.28;100.00
6680;BME280;3376;42.664;23.346;2023-06-14T03:49:11;94288.13;;;18.26;100.00
6680;BME280;3376;42.664;23.346;2023-06-14T03:51:38;94277.63;;;18.26;100.00
6680;BME280;3376;42.664;23.346;2023-06-14T03:54:05;94285.19;;;18.34;100.00
6680;BME280;3376;42.664;23.346;2023-06-14T03:56:32;94288.81;;;18.33;100.00
6680;BME280;3376;42.664;23.346;2023-06-14T03:59:00;94293.75;;;18.41;100.00
6680;BME280;3376;42.664;23.346;2023-06-14T04:01:27;94294.78;;;18.40;100.00
6680;BME280;3376;42.664;23.346;2023-06-14T04:03:56;94291.94;;;18.41;100.00
6680;BME280;3376;42.664;23.346;2023-06-14T04:06:23;94294.66;;;18.46;100.00
6680;BME280;3376;42.664;23.346;2023-06-14T04:08:58;94291.25;;;18.46;100.00
6680;BME280;3376;42.664;23.346;2023-06-14T04:11:27;94294.09;;;18.56;100.00
6680;BME280;3376;42.664;23.346;2023-06-14T04:13:54;94295.00;;;18.50;100.00
6680;BME280;3376;42.664;23.346;2023-06-14T04:16:23;94291.59;;;18.61;100.00
6680;BME280;3376;42.664;23.346;2023-06-14T04:18:50;94293.97;;;18.62;100.00
6680;BME280;3376;42.664;23.346;2023-06-14T04:21:17;94292.00;;;18.81;100.00
6680;BME280;3376;42.664;23.346;2023-06-14T04:23:44;94286.88;;;18.74;100.00
6680;BME280;3376;42.664;23.346;2023-06-14T04:26:11;94301.47;;;18.82;100.00
6680;BME280;3376;42.664;23.346;2023-06-14T04:28:38;94305.94;;;18.82;100.00
6680;BME280;3376;42.664;23.346;2023-06-14T04:31:06;94296.22;;;18.82;100.00
6680;BME280;3376;42.664;23.346;2023-06-14T04:33:35;94300.19;;;18.96;100.00
6680;BME280;3376;42.664;23.346;2023-06-14T04:36:08;94298.00;;;19.05;100.00
6680;BME280;3376;42.664;23.346;2023-06-14T04:38:35;94299.66;;;19.22;100.00
6680;BME280;3376;42.664;23.346;2023-06-14T04:41:02;94274.75;;;19.36;100.00
6680;BME280;3376;42.664;23.346;2023-06-14T04:43:29;94286.28;;;19.63;100.00
6680;BME280;3376;42.664;23.346;2023-06-14T04:45:57;94302.38;;;19.83;100.00
6680;BME280;3376;42.664;23.346;2023-06-14T04:48:24;94304.94;;;19.78;100.00
6680;BME280;3376;42.664;23.346;2023-06-14T04:50:52;94301.25;;;19.63;100.00
6680;BME280;3376;42.664;23.346;2023-06-14T04:53:19;94316.22;;;19.62;100.00
6680;BME280;3376;42.664;23.346;2023-06-14T04:55:48;94285.44;;;19.46;100.00
6680;BME280;3376;42.664;23.346;2023-06-14T04:58:15;94316.75;;;19.64;100.00
6680;BME280;3376;42.664;23.346;2023-06-14T05:00:42;94321.56;;;19.67;100.00
6680;BME280;3376;42.664;23.346;2023-06-14T05:03:09;94322.03;;;19.64;100.00
6680;BME280;3376;42.664;23.346;2023-06-14T05:05:39;94319.97;;;19.66;100.00
6680;BME280;3376;42.664;23.346;2023-06-14T05:08:08;94316.66;;;19.71;100.00
6680;BME280;3376;42.664;23.346;2023-06-14T05:10:35;94328.31;;;19.92;100.00
6680;BME280;3376;42.664;23.346;2023-06-14T05:13:02;94331.88;;;20.02;100.00
6680;BME280;3376;42.664;23.346;2023-06-14T05:15:29;94321.31;;;20.14;100.00
6680;BME280;3376;42.664;23.346;2023-06-14T05:17:56;94324.41;;;20.11;100.00
6680;BME280;3376;42.664;23.346;2023-06-14T05:20:23;94313.47;;;20.02;100.00
6680;BME280;3376;42.664;23.346;2023-06-14T05:22:52;94334.66;;;20.24;100.00
6680;BME280;3376;42.664;23.346;2023-06-14T05:25:20;94336.47;;;20.40;100.00
6680;BME280;3376;42.664;23.346;2023-06-14T05:27:47;94347.09;;;20.61;100.00
6680;BME280;3376;42.664;23.346;2023-06-14T05:30:14;94350.75;;;20.77;100.00
6680;BME280;3376;42.664;23.346;2023-06-14T05:32:42;94343.41;;;20.79;100.00
6680;BME280;3376;42.664;23.346;2023-06-14T05:35:09;94358.06;;;20.75;100.00
6680;BME280;3376;42.664;23.346;2023-06-14T05:37:36;94350.56;;;20.83;100.00
6680;BME280;3376;42.664;23.346;2023-06-14T05:40:03;94342.59;;;20.78;100.00
6680;BME280;3376;42.664;23.346;2023-06-14T05:42:33;94134.38;;;19.49;100.00
6680;BME280;3376;42.664;23.346;2023-06-14T05:45:00;94356.16;;;20.87;100.00
6680;BME280;3376;42.664;23.346;2023-06-14T05:47:27;94359.16;;;20.95;100.00
6680;BME280;3376;42.664;23.346;2023-06-14T05:49:54;94361.00;;;21.12;100.00
6680;BME280;3376;42.664;23.346;2023-06-14T05:52:21;94368.72;;;21.18;100.00
6680;BME280;3376;42.664;23.346;2023-06-14T05:54:48;94382.09;;;21.33;100.00
6680;BME280;3376;42.664;23.346;2023-06-14T05:57:15;94369.09;;;21.48;100.00
6680;BME280;3376;42.664;23.346;2023-06-14T05:59:43;94363.31;;;21.51;100.00
6680;BME280;3376;42.664;23.346;2023-06-14T06:02:10;94357.47;;;21.44;100.00
6680;BME280;3376;42.664;23.346;2023-06-14T06:04:37;94356.84;;;21.37;100.00
6680;BME280;3376;42.664;23.346;2023-06-14T06:07:04;94365.28;;;21.39;100.00
6680;BME280;3376;42.664;23.346;2023-06-14T06:09:33;94370.84;;;21.43;100.00
6680;BME280;3376;42.664;23.346;2023-06-14T06:12:01;94364.25;;;21.40;100.00
6680;BME280;3376;42.664;23.346;2023-06-14T06:14:27;94371.91;;;21.20;100.00
6680;BME280;3376;42.664;23.346;2023-06-14T06:16:55;94357.72;;;20.88;100.00
6680;BME280;3376;42.664;23.346;2023-06-14T06:19:22;94291.75;;;20.40;100.00
6680;BME280;3376;42.664;23.346;2023-06-14T06:21:49;94258.94;;;20.26;100.00
6680;BME280;3376;42.664;23.346;2023-06-14T06:24:16;94374.81;;;21.02;100.00
6680;BME280;3376;42.664;23.346;2023-06-14T06:26:43;94380.78;;;20.97;100.00
6680;BME280;3376;42.664;23.346;2023-06-14T06:29:09;94382.78;;;20.90;100.00
6680;BME280;3376;42.664;23.346;2023-06-14T06:31:36;94362.03;;;20.94;100.00
6680;BME280;3376;42.664;23.346;2023-06-14T06:34:05;94382.28;;;21.10;100.00
6680;BME280;3376;42.664;23.346;2023-06-14T06:36:31;94382.78;;;20.90;100.00
6680;BME280;3376;42.664;23.346;2023-06-14T06:38:58;94305.22;;;20.27;100.00
6680;BME280;3376;42.664;23.346;2023-06-14T06:41:25;94389.44;;;20.76;100.00
6680;BME280;3376;42.664;23.346;2023-06-14T06:43:52;94379.31;;;20.68;100.00
6680;BME280;3376;42.664;23.346;2023-06-14T06:46:19;94386.47;;;20.73;100.00
6680;BME280;3376;42.664;23.346;2023-06-14T06:48:45;94369.81;;;20.67;100.00
6680;BME280;3376;42.664;23.346;2023-06-14T06:51:14;94390.63;;;20.85;100.00
6680;BME280;3376;42.664;23.346;2023-06-14T06:53:42;94384.44;;;20.96;100.00
6680;BME280;3376;42.664;23.346;2023-06-14T06:56:09;94388.00;;;21.02;100.00
6680;BME280;3376;42.664;23.346;2023-06-14T06:58:36;94387.44;;;21.00;100.00
6680;BME280;3376;42.664;23.346;2023-06-14T07:01:02;94392.34;;;20.96;100.00
6680;BME280;3376;42.664;23.346;2023-06-14T07:03:29;94386.78;;;20.93;100.00
6680;BME280;3376;42.664;23.346;2023-06-14T07:05:56;94402.28;;;21.06;100.00
6680;BME280;3376;42.664;23.346;2023-06-14T07:08:24;94387.94;;;21.19;100.00
6680;BME280;3376;42.664;23.346;2023-06-14T07:10:52;94395.19;;;21.28;100.00
6680;BME280;3376;42.664;23.346;2023-06-14T07:13:19;94359.13;;;21.29;100.00
6680;BME280;3376;42.664;23.346;2023-06-14T07:15:46;94394.34;;;21.66;100.00
6680;BME280;3376;42.664;23.346;2023-06-14T07:18:15;94385.69;;;21.70;100.00
6680;BME280;3376;42.664;23.346;2023-06-14T07:20:42;94384.72;;;21.76;100.00
6680;BME280;3376;42.664;23.346;2023-06-14T07:23:09;94388.28;;;22.13;100.00
6680;BME280;3376;42.664;23.346;2023-06-14T07:25:37;94385.81;;;22.34;100.00
6680;BME280;3376;42.664;23.346;2023-06-14T07:28:04;94376.41;;;22.43;100.00
6680;BME280;3376;42.664;23.346;2023-06-14T07:30:31;94359.69;;;22.59;100.00
6680;BME280;3376;42.664;23.346;2023-06-14T07:32:58;94396.75;;;22.74;100.00
6680;BME280;3376;42.664;23.346;2023-06-14T07:35:24;94393.56;;;22.72;100.00
6680;BME280;3376;42.664;23.346;2023-06-14T07:37:51;94386.13;;;22.64;100.00
6680;BME280;3376;42.664;23.346;2023-06-14T07:40:18;94249.53;;;21.59;100.00
6680;BME280;3376;42.664;23.346;2023-06-14T07:42:46;94389.34;;;22.71;100.00
6680;BME280;3376;42.664;23.346;2023-06-14T07:45:15;94361.19;;;22.86;100.00
6680;BME280;3376;42.664;23.346;2023-06-14T07:47:41;94386.88;;;23.33;100.00
6680;BME280;3376;42.664;23.346;2023-06-14T07:50:09;94371.84;;;23.43;100.00
6680;BME280;3376;42.664;23.346;2023-06-14T07:52:37;94374.75;;;23.47;100.00
6680;BME280;3376;42.664;23.346;2023-06-14T07:55:04;94396.75;;;23.62;100.00
6680;BME280;3376;42.664;23.346;2023-06-14T07:57:31;94381.50;;;23.84;98.84
6680;BME280;3376;42.664;23.346;2023-06-14T08:00:00;94411.81;;;24.23;97.86
6680;BME280;3376;42.664;23.346;2023-06-14T08:02:26;94407.34;;;24.39;92.84
6680;BME280;3376;42.664;23.346;2023-06-14T08:04:53;94409.19;;;24.23;91.36
6680;BME280;3376;42.664;23.346;2023-06-14T08:07:20;94404.56;;;23.89;93.88
6680;BME280;3376;42.664;23.346;2023-06-14T08:09:47;94395.25;;;23.76;95.94
6680;BME280;3376;42.664;23.346;2023-06-14T08:12:13;94415.91;;;23.84;97.19
6680;BME280;3376;42.664;23.346;2023-06-14T08:14:42;94422.88;;;24.00;96.50
6680;BME280;3376;42.664;23.346;2023-06-14T08:17:10;94428.75;;;24.17;94.41
6680;BME280;3376;42.664;23.346;2023-06-14T08:19:37;94426.09;;;24.22;94.54
6680;BME280;3376;42.664;23.346;2023-06-14T08:22:04;94428.72;;;24.12;97.42
6680;BME280;3376;42.664;23.346;2023-06-14T08:24:32;94422.88;;;24.05;97.22
6680;BME280;3376;42.664;23.346;2023-06-14T08:26:58;94422.34;;;24.08;96.70
6680;BME280;3376;42.664;23.346;2023-06-14T08:29:26;94427.94;;;24.12;97.82
6680;BME280;3376;42.664;23.346;2023-06-14T08:31:56;94425.28;;;24.07;99.02
6680;BME280;3376;42.664;23.346;2023-06-14T08:34:24;94431.41;;;24.32;99.10
6680;BME280;3376;42.664;23.346;2023-06-14T08:36:51;94431.97;;;24.34;98.00
6680;BME280;3376;42.664;23.346;2023-06-14T08:39:18;94433.78;;;24.29;98.37
6680;BME280;3376;42.664;23.346;2023-06-14T08:41:46;94426.66;;;24.29;99.25
6680;BME280;3376;42.664;23.346;2023-06-14T08:44:15;94396.97;;;24.27;96.50
6680;BME280;3376;42.664;23.346;2023-06-14T08:46:42;94410.00;;;24.44;97.40
6680;BME280;3376;42.664;23.346;2023-06-14T08:49:11;94421.66;;;24.58;93.39
6680;BME280;3376;42.664;23.346;2023-06-14T08:51:39;94406.28;;;24.55;95.27
6680;BME280;3376;42.664;23.346;2023-06-14T08:54:07;94420.38;;;24.81;93.45
6680;BME280;3376;42.664;23.346;2023-06-14T08:56:37;94411.63;;;24.90;91.61
6680;BME280;3376;42.664;23.346;2023-06-14T08:59:07;94418.22;;;25.13;90.95
6680;BME280;3376;42.664;23.346;2023-06-14T09:01:36;94423.25;;;25.29;89.70
6680;BME280;3376;42.664;23.346;2023-06-14T09:04:03;94426.44;;;25.41;88.67
6680;BME280;3376;42.664;23.346;2023-06-14T09:06:31;94416.66;;;25.07;91.26
6680;BME280;3376;42.664;23.346;2023-06-14T09:08:59;94426.97;;;25.08;89.55
6680;BME280;3376;42.664;23.346;2023-06-14T09:11:26;94426.19;;;24.98;88.64
6680;BME280;3376;42.664;23.346;2023-06-14T09:13:53;94384.56;;;24.63;90.90
6680;BME280;3376;42.664;23.346;2023-06-14T09:16:20;94398.41;;;24.80;91.65
6680;BME280;3376;42.664;23.346;2023-06-14T09:18:47;94409.75;;;24.91;93.22
6680;BME280;3376;42.664;23.346;2023-06-14T09:21:15;94409.75;;;24.91;92.37
6680;BME280;3376;42.664;23.346;2023-06-14T09:23:44;94420.88;;;25.03;87.74
6680;BME280;3376;42.664;23.346;2023-06-14T09:26:14;94410.53;;;25.21;87.57
6680;BME280;3376;42.664;23.346;2023-06-14T09:28:42;94403.84;;;25.49;85.76
6680;BME280;3376;42.664;23.346;2023-06-14T09:31:10;94403.13;;;25.97;82.22
6680;BME280;3376;42.664;23.346;2023-06-14T09:33:38;94385.09;;;26.43;80.26
6680;BME280;3376;42.664;23.346;2023-06-14T09:36:10;94396.25;;;26.84;78.02
6680;BME280;3376;42.664;23.346;2023-06-14T09:38:39;94403.53;;;27.02;77.12
6680;BME280;3376;42.664;23.346;2023-06-14T09:41:07;94394.97;;;27.10;77.02
6680;BME280;3376;42.664;23.346;2023-06-14T09:43:36;94394.31;;;26.94;76.65
6680;BME280;3376;42.664;23.346;2023-06-14T09:46:04;94385.75;;;26.69;77.96
6680;BME280;3376;42.664;23.346;2023-06-14T09:48:32;94380.63;;;26.33;79.35
6680;BME280;3376;42.664;23.346;2023-06-14T09:50:59;94384.19;;;26.19;79.73
6680;BME280;3376;42.664;23.346;2023-06-14T09:53:30;94376.00;;;26.15;80.44
6680;BME280;3376;42.664;23.346;2023-06-14T09:55:58;94381.28;;;26.20;78.05
6680;BME280;3376;42.664;23.346;2023-06-14T09:58:26;94381.50;;;26.24;80.45
6680;BME280;3376;42.664;23.346;2023-06-14T10:00:57;94293.47;;;25.53;81.46
6680;BME280;3376;42.664;23.346;2023-06-14T10:03:28;94372.84;;;26.08;79.60
6680;BME280;3376;42.664;23.346;2023-06-14T10:05:55;94362.47;;;26.12;77.12
6680;BME280;3376;42.664;23.346;2023-06-14T10:08:27;94355.78;;;26.14;77.13
6680;BME280;3376;42.664;23.346;2023-06-14T10:10:58;94360.13;;;26.00;77.85
6680;BME280;3376;42.664;23.346;2023-06-14T10:13:26;94359.59;;;26.03;79.56
6680;BME280;3376;42.664;23.346;2023-06-14T10:16:00;94355.69;;;26.34;78.61
6680;BME280;3376;42.664;23.346;2023-06-14T10:18:35;94351.47;;;26.28;80.70
6680;BME280;3376;42.664;23.346;2023-06-14T10:21:15;94337.69;;;26.21;78.09
6680;BME280;3376;42.664;23.346;2023-06-14T10:23:44;94343.56;;;26.18;78.33
6680;BME280;3376;42.664;23.346;2023-06-14T10:26:18;94344.13;;;26.15;78.24
6680;BME280;3376;42.664;23.346;2023-06-14T10:28:56;94276.03;;;25.86;76.92
6680;BME280;3376;42.664;23.346;2023-06-14T10:31:40;94360.34;;;26.47;75.32
6680;BME280;3376;42.664;23.346;2023-06-14T10:34:07;94352.91;;;26.49;75.51
6680;BME280;3376;42.664;23.346;2023-06-14T10:36:34;94355.72;;;26.63;75.70
6680;BME280;3376;42.664;23.346;2023-06-14T10:39:05;94345.25;;;26.43;78.50
6680;BME280;3376;42.664;23.346;2023-06-14T10:41:35;94352.41;;;26.42;78.63
6680;BME280;3376;42.664;23.346;2023-06-14T10:44:31;94341.94;;;26.22;77.76
6680;BME280;3376;42.664;23.346;2023-06-14T10:47:00;94333.81;;;26.09;78.53
6680;BME280;3376;42.664;23.346;2023-06-14T10:49:45;94331.88;;;26.14;77.99
6680;BME280;3376;42.664;23.346;2023-06-14T10:52:16;94347.50;;;26.21;77.13
6680;BME280;3376;42.664;23.346;2023-06-14T10:55:17;94338.84;;;26.10;75.75
6680;BME280;3376;42.664;23.346;2023-06-14T10:57:46;94331.59;;;26.16;76.00
6680;BME280;3376;42.664;23.346;2023-06-14T11:00:17;94322.75;;;26.30;75.93
6680;BME280;3376;42.664;23.346;2023-06-14T11:03:22;94319.34;;;26.58;76.19
6680;BME280;3376;42.664;23.346;2023-06-14T11:05:56;94304.53;;;26.81;74.13
6680;BME280;3376;42.664;23.346;2023-06-14T11:11:31;94296.84;;;27.32;70.79
6680;BME280;3376;42.664;23.346;2023-06-14T11:13:59;94324.22;;;27.32;72.37
6680;BME280;3376;42.664;23.346;2023-06-14T11:16:26;94321.47;;;27.14;70.56
6680;BME280;3376;42.664;23.346;2023-06-14T11:18:55;94309.03;;;26.86;72.84
6680;BME280;3376;42.664;23.346;2023-06-14T11:21:24;94228.41;;;26.04;74.45
6680;BME280;3376;42.664;23.346;2023-06-14T11:23:56;94316.13;;;26.61;73.84
6680;BME280;3376;42.664;23.346;2023-06-14T11:26:26;94280.47;;;26.67;72.51
6680;BME280;3376;42.664;23.346;2023-06-14T11:28:57;94304.25;;;26.83;74.17
6680;BME280;3376;42.664;23.346;2023-06-14T11:31:24;94199.53;;;26.26;73.23
6680;BME280;3376;42.664;23.346;2023-06-14T11:33:53;94300.66;;;27.21;71.31
6680;BME280;3376;42.664;23.346;2023-06-14T11:36:21;94301.34;;;27.08;72.71
6680;BME280;3376;42.664;23.346;2023-06-14T11:38:49;94301.13;;;27.04;73.35
6680;BME280;3376;42.664;23.346;2023-06-14T11:41:16;94287.59;;;27.01;73.76
6680;BME280;3376;42.664;23.346;2023-06-14T11:43:43;94302.50;;;27.20;71.95
6680;BME280;3376;42.664;23.346;2023-06-14T11:46:13;94292.91;;;27.24;71.66
6680;BME280;3376;42.664;23.346;2023-06-14T11:48:41;94291.41;;;27.42;70.69
6680;BME280;3376;42.664;23.346;2023-06-14T11:51:08;94278.03;;;27.47;70.24
6680;BME280;3376;42.664;23.346;2023-06-14T11:53:38;94265.09;;;27.59;68.78
6680;BME280;3376;42.664;23.346;2023-06-14T11:56:05;94281.16;;;27.72;70.69
6680;BME280;3376;42.664;23.346;2023-06-14T11:58:32;94279.34;;;27.68;70.97
6680;BME280;3376;42.664;23.346;2023-06-14T12:00:59;94276.53;;;27.59;70.18
6680;BME280;3376;42.664;23.346;2023-06-14T12:03:27;94266.78;;;27.50;68.67
6680;BME280;3376;42.664;23.346;2023-06-14T12:06:06;94256.69;;;27.28;69.08
6680;BME280;3376;42.664;23.346;2023-06-14T12:08:35;94255.50;;;27.16;69.95
6680;BME280;3376;42.664;23.346;2023-06-14T12:11:06;94250.00;;;27.07;70.41
6680;BME280;3376;42.664;23.346;2023-06-14T12:13:37;94253.31;;;26.99;69.10
6680;BME280;3376;42.664;23.346;2023-06-14T12:16:04;94255.03;;;26.85;69.60
6680;BME280;3376;42.664;23.346;2023-06-14T12:18:32;94257.28;;;26.73;69.42
6680;BME280;3376;42.664;23.346;2023-06-14T12:20:59;94254.88;;;26.77;70.31
6680;BME280;3376;42.664;23.346;2023-06-14T12:23:38;94246.44;;;26.70;70.86
6680;BME280;3376;42.664;23.346;2023-06-14T12:26:07;94253.16;;;26.57;72.29
6680;BME280;3376;42.664;23.346;2023-06-14T12:28:33;94247.72;;;26.43;77.06
6680;BME280;3376;42.664;23.346;2023-06-14T12:31:00;94243.38;;;26.24;79.59
6680;BME280;3376;42.664;23.346;2023-06-14T12:33:27;94206.88;;;26.01;77.73
6680;BME280;3376;42.664;23.346;2023-06-14T12:35:55;94237.88;;;26.15;76.96
6680;BME280;3376;42.664;23.346;2023-06-14T12:38:23;94238.69;;;26.11;78.31
6680;BME280;3376;42.664;23.346;2023-06-14T12:40:49;94224.19;;;25.98;77.16
6680;BME280;3376;42.664;23.346;2023-06-14T12:43:18;94232.66;;;26.00;75.92
6680;BME280;3376;42.664;23.346;2023-06-14T12:45:44;94229.78;;;25.92;80.93
6680;BME280;3376;42.664;23.346;2023-06-14T12:48:11;94231.16;;;25.89;78.91
6680;BME280;3376;42.664;23.346;2023-06-14T12:50:38;94227.31;;;25.67;78.11
6680;BME280;3376;42.664;23.346;2023-06-14T12:53:05;94217.19;;;25.30;80.19
6680;BME280;3376;42.664;23.346;2023-06-14T12:55:32;94213.75;;;25.24;80.19
6680;BME280;3376;42.664;23.346;2023-06-14T12:57:59;94225.72;;;25.12;82.67
6680;BME280;3376;42.664;23.346;2023-06-14T13:00:27;94222.31;;;25.06;82.96
6680;BME280;3376;42.664;23.346;2023-06-14T13:02:55;94221.06;;;24.79;83.48
6680;BME280;3376;42.664;23.346;2023-06-14T13:05:22;94215.53;;;24.65;83.51
6680;BME280;3376;42.664;23.346;2023-06-14T13:07:49;94223.53;;;24.45;85.84
6680;BME280;3376;42.664;23.346;2023-06-14T13:10:16;94215.63;;;24.25;86.56
6680;BME280;3376;42.664;23.346;2023-06-14T13:12:43;94217.22;;;24.06;92.50
6680;BME280;3376;42.664;23.346;2023-06-14T13:15:10;94239.09;;;23.46;96.07